Moncada, Spain
Current Conditions -  °F | °C
As of 11:00 PM on Thursday 18 Dec 2014 (Local Time) from LEVC Reporting Station
Clear Clear  
Wind Chill: 50°   Ceiling: Unl
Heat Index: 50°   Visibility: 6mi
Dew Point: 48°   Wind: 1mph
Humidity: 94%   Direction: NA
Pressure: 30.33"   Gusts: NA
Location:  39.55°N, 0.4°W
Report Text: LEVC 182200Z VRB01KT CAVOK 10/09 Q1027 NOSIG
Loading
Personal Weather Stations






























Interactive Weather Map New forecast layout! Learn more

10-Day Weather Forecast

Advertisements
Track Severe Weather on mobile